< < Back
Terminal Aerodrome Forecast


Current Version              Previous Versions:   1  2  3  4  5  6  7  8  9  

Terminal Aerodrome Forecast

387
FTUS44 KOHX 071740
TAFBNA
TAF
KBNA 071740Z 0718/0818 23005KT P6SM BKN250
     FM080200 21006KT P6SM OVC100
     FM080700 24007KT P6SM -SHRA OVC050
     FM081000 26006KT 6SM -SHRA BR OVC025
     FM081600 29010KT 5SM -SN OVC015=



Latest METAR

016
SAUS70 KWBC 080348
MTRBNA
METAR KBNA 080353Z 21007KT 10SM FEW150 08/M07 A2992 RMK AO2 SLP131
T00781067 $


USA.gov is the U.S. government's official web portal to all federal, state and local government web resources and services.